sensor_id;sensor_type;location;lat;lon;timestamp;temperature;humidity
24814;DHT22;12904;50.088;11.414;2023-03-14T00:00:31;8.90;99.90
24814;DHT22;12904;50.088;11.414;2023-03-14T00:02:57;8.90;99.90
24814;DHT22;12904;50.088;11.414;2023-03-14T00:05:22;8.90;99.90
24814;DHT22;12904;50.088;11.414;2023-03-14T00:07:48;9.00;99.90
24814;DHT22;12904;50.088;11.414;2023-03-14T00:10:14;8.90;99.90
24814;DHT22;12904;50.088;11.414;2023-03-14T00:12:41;8.90;99.90
24814;DHT22;12904;50.088;11.414;2023-03-14T00:15:07;8.90;99.90
24814;DHT22;12904;50.088;11.414;2023-03-14T00:17:34;9.00;99.90
24814;DHT22;12904;50.088;11.414;2023-03-14T00:20:01;8.90;99.90
24814;DHT22;12904;50.088;11.414;2023-03-14T00:22:34;8.90;99.90
24814;DHT22;12904;50.088;11.414;2023-03-14T00:25:00;8.90;99.90
24814;DHT22;12904;50.088;11.414;2023-03-14T00:27:25;8.80;99.90
24814;DHT22;12904;50.088;11.414;2023-03-14T00:29:51;8.80;99.90
24814;DHT22;12904;50.088;11.414;2023-03-14T00:32:17;8.80;99.90
24814;DHT22;12904;50.088;11.414;2023-03-14T00:34:42;8.80;99.90
24814;DHT22;12904;50.088;11.414;2023-03-14T00:37:08;8.80;99.90
24814;DHT22;12904;50.088;11.414;2023-03-14T00:39:34;8.80;99.90
24814;DHT22;12904;50.088;11.414;2023-03-14T00:41:59;8.70;99.90
24814;DHT22;12904;50.088;11.414;2023-03-14T00:44:25;8.70;99.90
24814;DHT22;12904;50.088;11.414;2023-03-14T00:46:51;8.80;99.90
24814;DHT22;12904;50.088;11.414;2023-03-14T00:49:16;8.80;99.90
24814;DHT22;12904;50.088;11.414;2023-03-14T00:51:42;8.80;99.90
24814;DHT22;12904;50.088;11.414;2023-03-14T00:54:07;8.80;99.90
24814;DHT22;12904;50.088;11.414;2023-03-14T00:56:33;8.80;99.90
24814;DHT22;12904;50.088;11.414;2023-03-14T00:58:59;8.70;99.90
24814;DHT22;12904;50.088;11.414;2023-03-14T01:01:24;8.70;99.90
24814;DHT22;12904;50.088;11.414;2023-03-14T01:03:54;8.70;99.90
24814;DHT22;12904;50.088;11.414;2023-03-14T01:06:23;8.60;99.90
24814;DHT22;12904;50.088;11.414;2023-03-14T01:08:49;8.60;99.90
24814;DHT22;12904;50.088;11.414;2023-03-14T01:11:18;8.60;99.90
24814;DHT22;12904;50.088;11.414;2023-03-14T01:13:44;8.70;99.90
24814;DHT22;12904;50.088;11.414;2023-03-14T01:16:11;8.60;99.90
24814;DHT22;12904;50.088;11.414;2023-03-14T01:18:38;8.70;99.90
24814;DHT22;12904;50.088;11.414;2023-03-14T01:21:16;8.60;99.90
24814;DHT22;12904;50.088;11.414;2023-03-14T01:23:43;8.60;99.90
24814;DHT22;12904;50.088;11.414;2023-03-14T01:26:13;8.60;99.90
24814;DHT22;12904;50.088;11.414;2023-03-14T01:28:40;8.60;99.90
24814;DHT22;12904;50.088;11.414;2023-03-14T01:31:08;8.50;99.90
24814;DHT22;12904;50.088;11.414;2023-03-14T01:33:34;8.50;99.90
24814;DHT22;12904;50.088;11.414;2023-03-14T01:36:00;8.50;99.90
24814;DHT22;12904;50.088;11.414;2023-03-14T01:38:29;8.50;99.90
24814;DHT22;12904;50.088;11.414;2023-03-14T01:40:55;8.50;99.90
24814;DHT22;12904;50.088;11.414;2023-03-14T01:43:21;8.50;99.90
24814;DHT22;12904;50.088;11.414;2023-03-14T01:54:22;8.30;99.90
24814;DHT22;12904;50.088;11.414;2023-03-14T01:56:55;8.30;99.90
24814;DHT22;12904;50.088;11.414;2023-03-14T01:59:22;8.30;99.90
24814;DHT22;12904;50.088;11.414;2023-03-14T02:01:49;8.30;99.90
24814;DHT22;12904;50.088;11.414;2023-03-14T02:04:17;8.30;99.90
24814;DHT22;12904;50.088;11.414;2023-03-14T02:07:10;8.30;99.90
24814;DHT22;12904;50.088;11.414;2023-03-14T02:09:39;8.40;99.90
24814;DHT22;12904;50.088;11.414;2023-03-14T02:12:07;8.30;99.90
24814;DHT22;12904;50.088;11.414;2023-03-14T02:14:35;8.40;99.90
24814;DHT22;12904;50.088;11.414;2023-03-14T02:17:03;8.40;99.90
24814;DHT22;12904;50.088;11.414;2023-03-14T02:22:16;8.50;99.90
24814;DHT22;12904;50.088;11.414;2023-03-14T02:27:28;8.50;99.90
24814;DHT22;12904;50.088;11.414;2023-03-14T02:30:00;8.50;99.90
24814;DHT22;12904;50.088;11.414;2023-03-14T02:32:29;8.50;99.90
24814;DHT22;12904;50.088;11.414;2023-03-14T02:35:02;8.40;99.90
24814;DHT22;12904;50.088;11.414;2023-03-14T02:37:35;8.40;99.90
24814;DHT22;12904;50.088;11.414;2023-03-14T02:40:02;8.50;99.90
24814;DHT22;12904;50.088;11.414;2023-03-14T02:42:29;8.50;99.90
24814;DHT22;12904;50.088;11.414;2023-03-14T02:47:33;8.50;99.90
24814;DHT22;12904;50.088;11.414;2023-03-14T02:50:08;8.50;99.90
24814;DHT22;12904;50.088;11.414;2023-03-14T02:52:34;8.40;99.90
24814;DHT22;12904;50.088;11.414;2023-03-14T02:55:00;8.40;99.90
24814;DHT22;12904;50.088;11.414;2023-03-14T02:57:26;8.40;99.90
24814;DHT22;12904;50.088;11.414;2023-03-14T02:59:52;8.40;99.90
24814;DHT22;12904;50.088;11.414;2023-03-14T03:02:17;8.40;99.90
24814;DHT22;12904;50.088;11.414;2023-03-14T03:04:43;8.40;99.90
24814;DHT22;12904;50.088;11.414;2023-03-14T03:07:09;8.40;99.90
24814;DHT22;12904;50.088;11.414;2023-03-14T03:09:35;8.40;99.90
24814;DHT22;12904;50.088;11.414;2023-03-14T03:12:00;8.40;99.90
24814;DHT22;12904;50.088;11.414;2023-03-14T03:14:26;8.40;99.90
24814;DHT22;12904;50.088;11.414;2023-03-14T03:16:51;8.40;99.90
24814;DHT22;12904;50.088;11.414;2023-03-14T03:19:17;8.40;99.90
24814;DHT22;12904;50.088;11.414;2023-03-14T03:21:43;8.40;99.90
24814;DHT22;12904;50.088;11.414;2023-03-14T03:24:09;8.40;99.90
24814;DHT22;12904;50.088;11.414;2023-03-14T03:26:35;8.40;99.90
24814;DHT22;12904;50.088;11.414;2023-03-14T03:29:01;8.40;99.90
24814;DHT22;12904;50.088;11.414;2023-03-14T03:31:27;8.40;99.90
24814;DHT22;12904;50.088;11.414;2023-03-14T03:33:53;8.40;99.90
24814;DHT22;12904;50.088;11.414;2023-03-14T03:36:23;8.40;99.90
24814;DHT22;12904;50.088;11.414;2023-03-14T03:38:49;8.40;99.90
24814;DHT22;12904;50.088;11.414;2023-03-14T03:41:15;8.40;99.90
24814;DHT22;12904;50.088;11.414;2023-03-14T03:43:40;8.40;99.90
24814;DHT22;12904;50.088;11.414;2023-03-14T03:46:06;8.40;99.90
24814;DHT22;12904;50.088;11.414;2023-03-14T03:48:33;8.30;99.90
24814;DHT22;12904;50.088;11.414;2023-03-14T03:50:58;8.30;99.90
24814;DHT22;12904;50.088;11.414;2023-03-14T03:53:24;8.30;99.90
24814;DHT22;12904;50.088;11.414;2023-03-14T03:55:50;8.30;99.90
24814;DHT22;12904;50.088;11.414;2023-03-14T03:58:15;8.30;99.90
24814;DHT22;12904;50.088;11.414;2023-03-14T04:00:41;8.30;99.90
24814;DHT22;12904;50.088;11.414;2023-03-14T04:03:07;8.30;99.90
24814;DHT22;12904;50.088;11.414;2023-03-14T04:05:32;8.20;99.90
24814;DHT22;12904;50.088;11.414;2023-03-14T04:07:59;8.20;99.90
24814;DHT22;12904;50.088;11.414;2023-03-14T04:10:25;8.20;99.90
24814;DHT22;12904;50.088;11.414;2023-03-14T04:12:51;8.10;99.90
24814;DHT22;12904;50.088;11.414;2023-03-14T04:15:17;8.10;99.90
24814;DHT22;12904;50.088;11.414;2023-03-14T04:17:43;8.00;99.90
24814;DHT22;12904;50.088;11.414;2023-03-14T04:20:09;8.00;99.90
24814;DHT22;12904;50.088;11.414;2023-03-14T04:22:38;7.90;99.90
24814;DHT22;12904;50.088;11.414;2023-03-14T04:25:05;7.90;99.90
24814;DHT22;12904;50.088;11.414;2023-03-14T04:27:31;8.00;99.90
24814;DHT22;12904;50.088;11.414;2023-03-14T04:29:56;8.10;99.90
24814;DHT22;12904;50.088;11.414;2023-03-14T04:32:22;8.10;99.90
24814;DHT22;12904;50.088;11.414;2023-03-14T04:34:47;8.20;99.90
24814;DHT22;12904;50.088;11.414;2023-03-14T04:37:13;8.20;99.90
24814;DHT22;12904;50.088;11.414;2023-03-14T04:39:39;8.20;99.90
24814;DHT22;12904;50.088;11.414;2023-03-14T04:42:04;8.30;99.90
24814;DHT22;12904;50.088;11.414;2023-03-14T04:44:31;8.30;99.90
24814;DHT22;12904;50.088;11.414;2023-03-14T04:46:56;8.30;99.90
24814;DHT22;12904;50.088;11.414;2023-03-14T04:49:22;8.40;99.90
24814;DHT22;12904;50.088;11.414;2023-03-14T04:51:48;8.30;99.90
24814;DHT22;12904;50.088;11.414;2023-03-14T04:54:16;8.30;99.90
24814;DHT22;12904;50.088;11.414;2023-03-14T04:56:41;8.40;99.90
24814;DHT22;12904;50.088;11.414;2023-03-14T04:59:07;8.40;99.90
24814;DHT22;12904;50.088;11.414;2023-03-14T05:01:33;8.30;99.90
24814;DHT22;12904;50.088;11.414;2023-03-14T05:03:59;8.30;99.90
24814;DHT22;12904;50.088;11.414;2023-03-14T05:06:25;8.30;99.90
24814;DHT22;12904;50.088;11.414;2023-03-14T05:08:51;8.30;99.90
24814;DHT22;12904;50.088;11.414;2023-03-14T05:11:17;8.30;99.90
24814;DHT22;12904;50.088;11.414;2023-03-14T05:13:43;8.30;99.90
24814;DHT22;12904;50.088;11.414;2023-03-14T05:16:10;8.40;99.90
24814;DHT22;12904;50.088;11.414;2023-03-14T05:18:36;8.30;99.90
24814;DHT22;12904;50.088;11.414;2023-03-14T05:21:02;8.40;99.90
24814;DHT22;12904;50.088;11.414;2023-03-14T05:23:28;8.40;99.90
24814;DHT22;12904;50.088;11.414;2023-03-14T05:25:54;8.50;99.90
24814;DHT22;12904;50.088;11.414;2023-03-14T05:28:20;8.50;99.90
24814;DHT22;12904;50.088;11.414;2023-03-14T05:30:46;8.50;99.90
24814;DHT22;12904;50.088;11.414;2023-03-14T05:33:11;8.50;99.90
24814;DHT22;12904;50.088;11.414;2023-03-14T05:35:38;8.40;99.90
24814;DHT22;12904;50.088;11.414;2023-03-14T05:38:04;8.40;99.90
24814;DHT22;12904;50.088;11.414;2023-03-14T05:40:29;8.40;99.90
24814;DHT22;12904;50.088;11.414;2023-03-14T05:42:55;8.40;99.90
24814;DHT22;12904;50.088;11.414;2023-03-14T05:45:21;8.50;99.90
24814;DHT22;12904;50.088;11.414;2023-03-14T05:47:46;8.50;99.90
24814;DHT22;12904;50.088;11.414;2023-03-14T05:50:12;8.60;99.90
24814;DHT22;12904;50.088;11.414;2023-03-14T05:52:37;8.60;99.90
24814;DHT22;12904;50.088;11.414;2023-03-14T05:55:04;8.70;99.90
24814;DHT22;12904;50.088;11.414;2023-03-14T05:57:29;8.70;99.90
24814;DHT22;12904;50.088;11.414;2023-03-14T05:59:55;8.70;99.90
24814;DHT22;12904;50.088;11.414;2023-03-14T06:02:21;8.70;99.90
24814;DHT22;12904;50.088;11.414;2023-03-14T06:04:46;8.70;99.90
24814;DHT22;12904;50.088;11.414;2023-03-14T06:07:12;8.70;99.90
24814;DHT22;12904;50.088;11.414;2023-03-14T06:09:38;8.70;99.90
24814;DHT22;12904;50.088;11.414;2023-03-14T06:12:05;8.70;99.90
24814;DHT22;12904;50.088;11.414;2023-03-14T06:14:30;8.70;99.90
24814;DHT22;12904;50.088;11.414;2023-03-14T06:16:56;8.70;99.90
24814;DHT22;12904;50.088;11.414;2023-03-14T06:19:22;8.70;99.90
24814;DHT22;12904;50.088;11.414;2023-03-14T06:21:48;8.60;99.90
24814;DHT22;12904;50.088;11.414;2023-03-14T06:24:14;8.60;99.90
24814;DHT22;12904;50.088;11.414;2023-03-14T06:26:40;8.60;99.90
24814;DHT22;12904;50.088;11.414;2023-03-14T06:29:05;8.60;99.90
24814;DHT22;12904;50.088;11.414;2023-03-14T06:31:32;8.50;99.90
24814;DHT22;12904;50.088;11.414;2023-03-14T06:33:58;8.50;99.90
24814;DHT22;12904;50.088;11.414;2023-03-14T06:36:23;8.50;99.90
24814;DHT22;12904;50.088;11.414;2023-03-14T06:38:49;8.40;99.90
24814;DHT22;12904;50.088;11.414;2023-03-14T06:41:15;8.40;99.90
24814;DHT22;12904;50.088;11.414;2023-03-14T06:43:41;8.40;99.90
24814;DHT22;12904;50.088;11.414;2023-03-14T06:46:07;8.40;99.90
24814;DHT22;12904;50.088;11.414;2023-03-14T06:48:32;8.40;99.90
24814;DHT22;12904;50.088;11.414;2023-03-14T06:50:58;8.50;99.90
24814;DHT22;12904;50.088;11.414;2023-03-14T06:53:23;8.50;99.90
24814;DHT22;12904;50.088;11.414;2023-03-14T06:55:49;8.60;99.90
24814;DHT22;12904;50.088;11.414;2023-03-14T06:58:15;8.70;99.90
24814;DHT22;12904;50.088;11.414;2023-03-14T07:00:41;8.70;99.90
24814;DHT22;12904;50.088;11.414;2023-03-14T07:03:08;8.80;99.90
24814;DHT22;12904;50.088;11.414;2023-03-14T07:05:34;8.90;99.90
24814;DHT22;12904;50.088;11.414;2023-03-14T07:07:59;9.00;99.90
24814;DHT22;12904;50.088;11.414;2023-03-14T07:10:25;9.00;99.90
24814;DHT22;12904;50.088;11.414;2023-03-14T07:12:51;9.10;99.90
24814;DHT22;12904;50.088;11.414;2023-03-14T07:15:18;9.10;99.90
24814;DHT22;12904;50.088;11.414;2023-03-14T07:17:43;9.20;99.90
24814;DHT22;12904;50.088;11.414;2023-03-14T07:20:09;9.20;99.90
24814;DHT22;12904;50.088;11.414;2023-03-14T07:22:35;9.30;99.90
24814;DHT22;12904;50.088;11.414;2023-03-14T07:25:01;9.30;99.90
24814;DHT22;12904;50.088;11.414;2023-03-14T07:27:26;9.30;99.90
24814;DHT22;12904;50.088;11.414;2023-03-14T07:29:52;9.30;99.90
24814;DHT22;12904;50.088;11.414;2023-03-14T07:32:18;9.30;99.90
24814;DHT22;12904;50.088;11.414;2023-03-14T07:34:43;9.30;99.90
24814;DHT22;12904;50.088;11.414;2023-03-14T07:37:10;9.30;99.90
24814;DHT22;12904;50.088;11.414;2023-03-14T07:39:35;9.40;99.90
24814;DHT22;12904;50.088;11.414;2023-03-14T07:42:01;9.40;99.90
24814;DHT22;12904;50.088;11.414;2023-03-14T07:44:27;9.30;99.90
24814;DHT22;12904;50.088;11.414;2023-03-14T07:46:52;9.30;99.90
24814;DHT22;12904;50.088;11.414;2023-03-14T07:49:18;9.30;99.90
24814;DHT22;12904;50.088;11.414;2023-03-14T07:51:46;9.30;99.90
24814;DHT22;12904;50.088;11.414;2023-03-14T07:54:12;9.40;99.90
24814;DHT22;12904;50.088;11.414;2023-03-14T07:56:38;9.50;99.90
24814;DHT22;12904;50.088;11.414;2023-03-14T07:59:03;9.60;99.90
24814;DHT22;12904;50.088;11.414;2023-03-14T08:01:29;9.50;99.90
24814;DHT22;12904;50.088;11.414;2023-03-14T08:03:54;9.50;99.90
24814;DHT22;12904;50.088;11.414;2023-03-14T08:06:20;9.50;99.90
24814;DHT22;12904;50.088;11.414;2023-03-14T08:08:46;9.60;99.90
24814;DHT22;12904;50.088;11.414;2023-03-14T08:11:11;9.70;99.90
24814;DHT22;12904;50.088;11.414;2023-03-14T08:13:37;9.70;99.90
24814;DHT22;12904;50.088;11.414;2023-03-14T08:16:04;9.80;99.90
24814;DHT22;12904;50.088;11.414;2023-03-14T08:18:30;9.90;99.90
24814;DHT22;12904;50.088;11.414;2023-03-14T08:20:55;10.10;99.90
24814;DHT22;12904;50.088;11.414;2023-03-14T08:23:21;10.20;99.90
24814;DHT22;12904;50.088;11.414;2023-03-14T08:25:51;10.20;99.90
24814;DHT22;12904;50.088;11.414;2023-03-14T08:28:17;10.20;99.90
24814;DHT22;12904;50.088;11.414;2023-03-14T08:30:43;10.30;99.90
24814;DHT22;12904;50.088;11.414;2023-03-14T08:33:09;10.30;99.90
24814;DHT22;12904;50.088;11.414;2023-03-14T08:35:34;10.40;99.90
24814;DHT22;12904;50.088;11.414;2023-03-14T08:38:00;10.40;99.90
24814;DHT22;12904;50.088;11.414;2023-03-14T08:40:26;10.60;99.90
24814;DHT22;12904;50.088;11.414;2023-03-14T08:42:52;10.70;99.90
24814;DHT22;12904;50.088;11.414;2023-03-14T08:45:17;10.70;99.90
24814;DHT22;12904;50.088;11.414;2023-03-14T08:47:44;10.80;99.90
24814;DHT22;12904;50.088;11.414;2023-03-14T08:50:11;10.80;99.90
24814;DHT22;12904;50.088;11.414;2023-03-14T08:52:37;10.90;99.90
24814;DHT22;12904;50.088;11.414;2023-03-14T08:55:06;10.80;99.90
24814;DHT22;12904;50.088;11.414;2023-03-14T08:57:32;10.80;99.90
24814;DHT22;12904;50.088;11.414;2023-03-14T08:59:58;10.70;99.90
24814;DHT22;12904;50.088;11.414;2023-03-14T09:02:25;10.70;99.90
24814;DHT22;12904;50.088;11.414;2023-03-14T09:04:51;10.70;99.90
24814;DHT22;12904;50.088;11.414;2023-03-14T09:07:17;10.80;99.90
24814;DHT22;12904;50.088;11.414;2023-03-14T09:09:43;11.00;99.90
24814;DHT22;12904;50.088;11.414;2023-03-14T09:12:09;11.30;99.90
24814;DHT22;12904;50.088;11.414;2023-03-14T09:14:35;11.40;99.90
24814;DHT22;12904;50.088;11.414;2023-03-14T09:17:00;11.50;99.90
24814;DHT22;12904;50.088;11.414;2023-03-14T09:19:26;11.40;99.90
24814;DHT22;12904;50.088;11.414;2023-03-14T09:21:52;11.30;99.90
24814;DHT22;12904;50.088;11.414;2023-03-14T09:24:18;11.40;99.90
24814;DHT22;12904;50.088;11.414;2023-03-14T09:26:43;11.30;99.90
24814;DHT22;12904;50.088;11.414;2023-03-14T09:29:09;11.40;99.90
24814;DHT22;12904;50.088;11.414;2023-03-14T09:31:35;11.30;99.90
24814;DHT22;12904;50.088;11.414;2023-03-14T09:34:01;11.20;99.90
24814;DHT22;12904;50.088;11.414;2023-03-14T09:36:26;11.00;99.90
24814;DHT22;12904;50.088;11.414;2023-03-14T09:38:52;10.80;99.90
24814;DHT22;12904;50.088;11.414;2023-03-14T09:43:48;10.50;99.90
24814;DHT22;12904;50.088;11.414;2023-03-14T09:46:16;10.60;99.90
24814;DHT22;12904;50.088;11.414;2023-03-14T09:48:43;10.60;99.90
24814;DHT22;12904;50.088;11.414;2023-03-14T09:51:17;10.60;99.90
24814;DHT22;12904;50.088;11.414;2023-03-14T09:53:47;10.60;99.90
24814;DHT22;12904;50.088;11.414;2023-03-14T09:56:25;10.60;99.90
24814;DHT22;12904;50.088;11.414;2023-03-14T09:58:55;10.60;99.90
24814;DHT22;12904;50.088;11.414;2023-03-14T10:01:26;10.60;99.90
24814;DHT22;12904;50.088;11.414;2023-03-14T10:03:55;10.70;99.90
24814;DHT22;12904;50.088;11.414;2023-03-14T10:06:24;10.60;99.90
24814;DHT22;12904;50.088;11.414;2023-03-14T10:08:51;10.50;99.90
24814;DHT22;12904;50.088;11.414;2023-03-14T10:11:18;10.40;99.90
24814;DHT22;12904;50.088;11.414;2023-03-14T10:14:01;10.40;99.90
24814;DHT22;12904;50.088;11.414;2023-03-14T10:16:30;10.30;99.90
24814;DHT22;12904;50.088;11.414;2023-03-14T10:19:05;10.10;99.90
24814;DHT22;12904;50.088;11.414;2023-03-14T10:21:37;10.00;99.90
24814;DHT22;12904;50.088;11.414;2023-03-14T10:26:58;9.90;99.90
24814;DHT22;12904;50.088;11.414;2023-03-14T10:29:26;9.80;99.90
24814;DHT22;12904;50.088;11.414;2023-03-14T10:32:06;9.80;99.90
24814;DHT22;12904;50.088;11.414;2023-03-14T10:34:38;9.80;99.90
24814;DHT22;12904;50.088;11.414;2023-03-14T10:37:24;9.90;99.90
24814;DHT22;12904;50.088;11.414;2023-03-14T10:39:58;10.00;99.90
24814;DHT22;12904;50.088;11.414;2023-03-14T10:42:32;9.90;99.90
24814;DHT22;12904;50.088;11.414;2023-03-14T10:45:22;9.90;99.90
24814;DHT22;12904;50.088;11.414;2023-03-14T10:47:51;9.90;99.90
24814;DHT22;12904;50.088;11.414;2023-03-14T10:50:30;9.90;99.90
24814;DHT22;12904;50.088;11.414;2023-03-14T10:52:56;9.80;99.90
24814;DHT22;12904;50.088;11.414;2023-03-14T10:55:24;9.80;99.90
24814;DHT22;12904;50.088;11.414;2023-03-14T10:57:53;9.70;99.90
24814;DHT22;12904;50.088;11.414;2023-03-14T11:00:23;9.80;99.90
24814;DHT22;12904;50.088;11.414;2023-03-14T11:11:04;9.60;99.90
24814;DHT22;12904;50.088;11.414;2023-03-14T11:13:36;9.60;99.90
24814;DHT22;12904;50.088;11.414;2023-03-14T11:16:24;9.70;99.90
24814;DHT22;12904;50.088;11.414;2023-03-14T11:21:47;9.90;99.90
24814;DHT22;12904;50.088;11.414;2023-03-14T11:26:57;10.00;99.90
24814;DHT22;12904;50.088;11.414;2023-03-14T11:29:47;10.00;99.90
24814;DHT22;12904;50.088;11.414;2023-03-14T11:32:41;10.00;99.90
24814;DHT22;12904;50.088;11.414;2023-03-14T11:40:46;10.70;99.90
24814;DHT22;12904;50.088;11.414;2023-03-14T11:45:42;10.90;99.90
24814;DHT22;12904;50.088;11.414;2023-03-14T11:50:44;10.70;99.90
24814;DHT22;12904;50.088;11.414;2023-03-14T11:53:22;10.70;99.90
24814;DHT22;12904;50.088;11.414;2023-03-14T11:55:50;10.70;99.90
24814;DHT22;12904;50.088;11.414;2023-03-14T11:58:33;10.60;99.90
24814;DHT22;12904;50.088;11.414;2023-03-14T12:01:04;10.70;99.90
24814;DHT22;12904;50.088;11.414;2023-03-14T12:04:03;10.80;99.90
24814;DHT22;12904;50.088;11.414;2023-03-14T12:06:49;10.80;99.90
24814;DHT22;12904;50.088;11.414;2023-03-14T12:09:17;10.90;99.90
24814;DHT22;12904;50.088;11.414;2023-03-14T12:11:57;11.00;99.90
24814;DHT22;12904;50.088;11.414;2023-03-14T12:14:35;11.30;99.90
24814;DHT22;12904;50.088;11.414;2023-03-14T12:17:07;11.80;99.90
24814;DHT22;12904;50.088;11.414;2023-03-14T12:19:43;12.10;99.90
24814;DHT22;12904;50.088;11.414;2023-03-14T12:22:27;12.10;99.90
24814;DHT22;12904;50.088;11.414;2023-03-14T12:25:27;12.30;99.90
24814;DHT22;12904;50.088;11.414;2023-03-14T12:30:41;13.60;99.90
24814;DHT22;12904;50.088;11.414;2023-03-14T12:33:20;14.00;99.90
24814;DHT22;12904;50.088;11.414;2023-03-14T12:35:48;14.10;99.90
24814;DHT22;12904;50.088;11.414;2023-03-14T12:43:45;14.90;99.90
24814;DHT22;12904;50.088;11.414;2023-03-14T12:48:45;14.70;99.90
24814;DHT22;12904;50.088;11.414;2023-03-14T12:51:17;14.30;99.90
24814;DHT22;12904;50.088;11.414;2023-03-14T13:00:02;13.10;99.90
24814;DHT22;12904;50.088;11.414;2023-03-14T13:04:34;12.70;99.90
24814;DHT22;12904;50.088;11.414;2023-03-14T13:07:02;12.70;99.90
24814;DHT22;12904;50.088;11.414;2023-03-14T13:11:55;13.00;99.90
24814;DHT22;12904;50.088;11.414;2023-03-14T13:14:22;12.80;99.90
24814;DHT22;12904;50.088;11.414;2023-03-14T13:16:49;12.70;99.90
24814;DHT22;12904;50.088;11.414;2023-03-14T13:19:19;12.70;99.90
24814;DHT22;12904;50.088;11.414;2023-03-14T13:21:47;12.70;99.90
24814;DHT22;12904;50.088;11.414;2023-03-14T13:26:47;12.50;99.90
24814;DHT22;12904;50.088;11.414;2023-03-14T13:29:21;12.10;99.90
24814;DHT22;12904;50.088;11.414;2023-03-14T13:31:53;11.60;99.90
24814;DHT22;12904;50.088;11.414;2023-03-14T13:34:19;11.30;99.90
24814;DHT22;12904;50.088;11.414;2023-03-14T13:36:46;10.90;99.90
24814;DHT22;12904;50.088;11.414;2023-03-14T13:39:21;10.60;99.90
24814;DHT22;12904;50.088;11.414;2023-03-14T13:41:57;10.70;99.90
24814;DHT22;12904;50.088;11.414;2023-03-14T13:46:49;10.80;99.90
24814;DHT22;12904;50.088;11.414;2023-03-14T13:49:25;10.80;99.90
24814;DHT22;12904;50.088;11.414;2023-03-14T13:51:51;10.80;99.90
24814;DHT22;12904;50.088;11.414;2023-03-14T13:54:20;10.70;99.90
24814;DHT22;12904;50.088;11.414;2023-03-14T13:56:46;10.70;99.90
24814;DHT22;12904;50.088;11.414;2023-03-14T14:01:52;10.30;99.90
24814;DHT22;12904;50.088;11.414;2023-03-14T14:04:21;10.20;99.90
24814;DHT22;12904;50.088;11.414;2023-03-14T14:06:50;10.00;99.90
24814;DHT22;12904;50.088;11.414;2023-03-14T14:09:21;9.90;99.90
24814;DHT22;12904;50.088;11.414;2023-03-14T14:12:02;9.80;99.90
24814;DHT22;12904;50.088;11.414;2023-03-14T14:14:37;9.70;99.90
24814;DHT22;12904;50.088;11.414;2023-03-14T14:17:11;9.70;99.90
24814;DHT22;12904;50.088;11.414;2023-03-14T14:19:38;9.60;99.90
24814;DHT22;12904;50.088;11.414;2023-03-14T14:22:05;9.50;99.90
24814;DHT22;12904;50.088;11.414;2023-03-14T14:24:32;9.40;99.90
24814;DHT22;12904;50.088;11.414;2023-03-14T14:27:01;9.40;99.90
24814;DHT22;12904;50.088;11.414;2023-03-14T14:29:32;9.30;99.90
24814;DHT22;12904;50.088;11.414;2023-03-14T14:34:48;9.20;99.90
24814;DHT22;12904;50.088;11.414;2023-03-14T14:37:24;9.20;99.90
24814;DHT22;12904;50.088;11.414;2023-03-14T14:39:52;9.20;99.90
24814;DHT22;12904;50.088;11.414;2023-03-14T14:42:20;9.20;99.90
24814;DHT22;12904;50.088;11.414;2023-03-14T14:44:50;9.20;99.90
24814;DHT22;12904;50.088;11.414;2023-03-14T14:47:19;9.30;99.90
24814;DHT22;12904;50.088;11.414;2023-03-14T14:49:48;9.30;99.90
24814;DHT22;12904;50.088;11.414;2023-03-14T14:52:15;9.30;99.90
24814;DHT22;12904;50.088;11.414;2023-03-14T14:54:53;9.30;99.90
24814;DHT22;12904;50.088;11.414;2023-03-14T14:57:24;9.30;99.90
24814;DHT22;12904;50.088;11.414;2023-03-14T14:59:51;9.30;99.90
24814;DHT22;12904;50.088;11.414;2023-03-14T15:02:38;9.30;99.90
24814;DHT22;12904;50.088;11.414;2023-03-14T15:05:13;9.30;99.90
24814;DHT22;12904;50.088;11.414;2023-03-14T15:07:40;9.20;99.90
24814;DHT22;12904;50.088;11.414;2023-03-14T15:10:09;9.10;99.90
24814;DHT22;12904;50.088;11.414;2023-03-14T15:12:34;8.90;99.90
24814;DHT22;12904;50.088;11.414;2023-03-14T15:15:00;8.80;99.90
24814;DHT22;12904;50.088;11.414;2023-03-14T15:17:26;8.70;99.90
24814;DHT22;12904;50.088;11.414;2023-03-14T15:19:51;8.70;99.90
24814;DHT22;12904;50.088;11.414;2023-03-14T15:22:17;8.70;99.90
24814;DHT22;12904;50.088;11.414;2023-03-14T15:24:44;8.60;99.90
24814;DHT22;12904;50.088;11.414;2023-03-14T15:27:13;8.50;99.90
24814;DHT22;12904;50.088;11.414;2023-03-14T15:29:40;8.40;99.90
24814;DHT22;12904;50.088;11.414;2023-03-14T15:32:11;8.30;99.90
24814;DHT22;12904;50.088;11.414;2023-03-14T15:34:37;8.20;99.90
24814;DHT22;12904;50.088;11.414;2023-03-14T15:37:02;8.10;99.90
24814;DHT22;12904;50.088;11.414;2023-03-14T15:39:35;8.00;99.90
24814;DHT22;12904;50.088;11.414;2023-03-14T15:42:01;8.00;99.90
24814;DHT22;12904;50.088;11.414;2023-03-14T15:44:27;7.90;99.90
24814;DHT22;12904;50.088;11.414;2023-03-14T15:46:53;7.90;99.90
24814;DHT22;12904;50.088;11.414;2023-03-14T15:49:18;8.00;99.90
24814;DHT22;12904;50.088;11.414;2023-03-14T15:51:44;8.00;99.90
24814;DHT22;12904;50.088;11.414;2023-03-14T15:54:09;8.00;99.90
24814;DHT22;12904;50.088;11.414;2023-03-14T15:56:35;8.00;99.90
24814;DHT22;12904;50.088;11.414;2023-03-14T15:59:01;8.00;99.90
24814;DHT22;12904;50.088;11.414;2023-03-14T16:01:26;8.00;99.90
24814;DHT22;12904;50.088;11.414;2023-03-14T16:03:52;8.00;99.90
24814;DHT22;12904;50.088;11.414;2023-03-14T16:06:19;8.00;99.90
24814;DHT22;12904;50.088;11.414;2023-03-14T16:08:45;8.00;99.90
24814;DHT22;12904;50.088;11.414;2023-03-14T16:11:12;8.10;99.90
24814;DHT22;12904;50.088;11.414;2023-03-14T16:13:40;8.10;99.90
24814;DHT22;12904;50.088;11.414;2023-03-14T16:16:07;8.10;99.90
24814;DHT22;12904;50.088;11.414;2023-03-14T16:18:35;8.10;99.90
24814;DHT22;12904;50.088;11.414;2023-03-14T16:21:07;8.10;99.90
24814;DHT22;12904;50.088;11.414;2023-03-14T16:23:33;8.10;99.90
24814;DHT22;12904;50.088;11.414;2023-03-14T16:26:04;8.10;99.90
24814;DHT22;12904;50.088;11.414;2023-03-14T16:28:30;8.10;99.90
24814;DHT22;12904;50.088;11.414;2023-03-14T16:31:03;8.00;99.90
24814;DHT22;12904;50.088;11.414;2023-03-14T16:33:30;8.00;99.90
24814;DHT22;12904;50.088;11.414;2023-03-14T16:35:57;7.90;99.90
24814;DHT22;12904;50.088;11.414;2023-03-14T16:38:26;7.90;99.90
24814;DHT22;12904;50.088;11.414;2023-03-14T16:40:59;7.40;99.90
24814;DHT22;12904;50.088;11.414;2023-03-14T16:43:26;6.80;99.90
24814;DHT22;12904;50.088;11.414;2023-03-14T16:45:52;6.30;99.90
24814;DHT22;12904;50.088;11.414;2023-03-14T16:48:18;5.90;99.90
24814;DHT22;12904;50.088;11.414;2023-03-14T16:50:43;5.60;99.90